Time;durP1;ratioP1;P1;durP2;ratioP2;P2;SDS_P1;SDS_P2;PMS_P1;PMS_P2;Temp;Humidity;BMP_temperature;BMP_pressure;BME280_temperature;BME280_humidity;BME280_pressure;Samples;Min_cycle;Max_cycle;Signal;HPM_P1;HPM_P2
2022/02/24 00:02:21;;;;;;;0.80;0.57;;;7.60;99.90;;;;;;5013505;28;20234;-81
2022/02/24 00:04:47;;;;;;;0.70;0.70;;;7.60;99.90;;;;;;5016128;28;20580;-80
2022/02/24 00:07:13;;;;;;;3.03;1.07;;;7.60;99.90;;;;;;5011913;28;20232;-83
2022/02/24 00:09:39;;;;;;;1.33;1.10;;;7.50;99.90;;;;;;5012916;28;20222;-80
2022/02/24 00:12:06;;;;;;;1.03;1.03;;;7.60;99.90;;;;;;5014871;28;20214;-81
2022/02/24 00:14:32;;;;;;;1.50;1.40;;;7.60;99.90;;;;;;5015370;28;20244;-81
2022/02/24 00:16:58;;;;;;;1.17;1.17;;;7.60;99.90;;;;;;4998135;28;20703;-80
2022/02/24 00:19:24;;;;;;;0.83;0.83;;;7.60;99.90;;;;;;5008390;28;20226;-80
2022/02/24 00:21:50;;;;;;;9.23;1.80;;;7.60;99.90;;;;;;4962423;28;20905;-81
2022/02/24 00:24:15;;;;;;;1.10;1.10;;;7.60;99.90;;;;;;5012155;28;20205;-79
2022/02/24 00:26:41;;;;;;;18.23;0.90;;;7.60;99.90;;;;;;4992575;28;20194;-80
2022/02/24 00:29:07;;;;;;;0.70;0.60;;;7.60;99.90;;;;;;5010233;28;20234;-80
2022/02/24 00:31:36;;;;;;;1.27;1.23;;;7.50;99.90;;;;;;5008557;28;20225;-80
2022/02/24 00:34:02;;;;;;;6.97;1.50;;;7.60;99.90;;;;;;5011448;28;20719;-80
2022/02/24 00:36:28;;;;;;;1.43;1.33;;;7.50;99.90;;;;;;5014428;28;20297;-80
2022/02/24 00:38:54;;;;;;;1.23;0.93;;;7.50;99.90;;;;;;5013155;28;20244;-81
2022/02/24 00:41:20;;;;;;;1.23;1.17;;;7.50;99.90;;;;;;5023281;28;20247;-82
2022/02/24 00:43:46;;;;;;;0.70;0.70;;;7.50;99.90;;;;;;4986507;28;20229;-80
2022/02/24 00:46:12;;;;;;;0.50;0.50;;;7.50;99.90;;;;;;4967910;28;20224;-79
2022/02/24 00:48:38;;;;;;;1.80;1.07;;;7.50;99.90;;;;;;4959383;28;21022;-80
2022/02/24 00:51:04;;;;;;;1.63;0.80;;;7.50;99.90;;;;;;4976742;28;20194;-80
2022/02/24 00:53:30;;;;;;;0.80;0.80;;;7.50;99.90;;;;;;4965378;28;20673;-81
2022/02/24 00:55:55;;;;;;;0.67;0.60;;;7.50;99.90;;;;;;5002791;28;20247;-79
2022/02/24 00:58:23;;;;;;;1.13;0.80;;;7.50;99.90;;;;;;4978388;28;20353;-80
2022/02/24 01:00:49;;;;;;;0.63;0.63;;;7.50;99.90;;;;;;5012975;28;20238;-81
2022/02/24 01:03:15;;;;;;;0.63;0.60;;;7.50;99.90;;;;;;4994159;28;20835;-81
2022/02/24 01:05:41;;;;;;;0.50;0.50;;;7.50;99.90;;;;;;4994108;28;20183;-81
2022/02/24 01:08:06;;;;;;;1.30;0.93;;;7.60;99.90;;;;;;4976700;28;21061;-80
2022/02/24 01:10:32;;;;;;;1.70;1.13;;;7.50;99.90;;;;;;5002254;28;20223;-81
2022/02/24 01:12:58;;;;;;;1.13;0.80;;;7.50;99.90;;;;;;5009123;28;20254;-80
2022/02/24 01:15:24;;;;;;;1.13;1.13;;;7.60;99.90;;;;;;4980179;28;21170;-80
2022/02/24 01:17:49;;;;;;;2.07;1.87;;;7.60;99.90;;;;;;4997528;28;20203;-83
2022/02/24 01:20:15;;;;;;;1.80;0.80;;;7.60;99.90;;;;;;4982330;28;20828;-83
2022/02/24 01:22:41;;;;;;;6.80;0.77;;;7.60;99.90;;;;;;5015943;28;20218;-82
2022/02/24 01:25:07;;;;;;;4.23;1.07;;;7.70;99.90;;;;;;4998510;28;20219;-80
2022/02/24 01:27:33;;;;;;;1.53;1.10;;;7.70;99.90;;;;;;5015253;28;21136;-81
2022/02/24 01:29:59;;;;;;;1.77;0.80;;;7.60;99.90;;;;;;4989452;28;20203;-81
2022/02/24 01:32:26;;;;;;;1.47;1.23;;;7.60;99.90;;;;;;4983806;28;20314;-82
2022/02/24 01:34:58;;;;;;;10.43;0.90;;;7.50;99.90;;;;;;4981156;28;20235;-82
2022/02/24 01:37:25;;;;;;;3.20;1.63;;;7.50;99.90;;;;;;5016564;28;20244;-82
2022/02/24 01:39:51;;;;;;;1.13;1.00;;;7.50;99.90;;;;;;5015062;28;20663;-82
2022/02/24 01:42:17;;;;;;;1.20;1.10;;;7.50;99.90;;;;;;5012050;28;20227;-79
2022/02/24 01:44:45;;;;;;;4.83;0.70;;;7.50;99.90;;;;;;4997548;28;20203;-83
2022/02/24 01:47:12;;;;;;;1.23;1.13;;;7.40;99.90;;;;;;5016784;28;20216;-80
2022/02/24 01:49:38;;;;;;;2.30;0.50;;;7.40;99.90;;;;;;4995266;28;20230;-80
2022/02/24 01:52:06;;;;;;;1.43;1.33;;;7.40;99.90;;;;;;4997837;28;20226;-80
2022/02/24 01:54:34;;;;;;;0.60;0.60;;;7.40;99.90;;;;;;4998150;28;20223;-80
2022/02/24 01:57:01;;;;;;;1.57;1.47;;;7.40;99.90;;;;;;4999207;28;20195;-79
2022/02/24 01:59:27;;;;;;;1.43;0.80;;;7.40;99.90;;;;;;4995752;28;20302;-80
2022/02/24 02:01:53;;;;;;;0.90;0.87;;;7.40;99.90;;;;;;4997182;28;21095;-80
2022/02/24 02:04:19;;;;;;;1.33;0.50;;;7.30;99.90;;;;;;4980711;28;20223;-80
2022/02/24 02:06:45;;;;;;;0.43;0.43;;;7.30;99.90;;;;;;4977943;28;20230;-80
2022/02/24 02:09:11;;;;;;;0.53;0.53;;;7.20;99.90;;;;;;4995720;28;20235;-80
2022/02/24 02:11:37;;;;;;;3.30;1.30;;;7.20;99.90;;;;;;4995118;28;20286;-80
2022/02/24 02:14:03;;;;;;;0.77;0.77;;;7.10;99.90;;;;;;4995372;28;20804;-81
2022/02/24 02:16:29;;;;;;;3.80;1.13;;;7.10;99.90;;;;;;5004942;28;20740;-81
2022/02/24 02:18:55;;;;;;;1.20;0.87;;;7.10;99.90;;;;;;4980586;28;20301;-81
2022/02/24 02:21:21;;;;;;;0.90;0.90;;;7.10;99.90;;;;;;4995304;28;21186;-80
2022/02/24 02:23:47;;;;;;;7.50;1.23;;;7.10;99.90;;;;;;4997431;28;20191;-80
2022/02/24 02:26:13;;;;;;;1.40;0.73;;;7.10;99.90;;;;;;4993934;28;20219;-80
2022/02/24 02:28:38;;;;;;;0.47;0.47;;;7.10;99.90;;;;;;5013496;28;20218;-81
2022/02/24 02:31:05;;;;;;;1.00;0.97;;;7.00;99.90;;;;;;4979920;28;20235;-81
2022/02/24 02:33:31;;;;;;;4.53;1.73;;;7.00;99.90;;;;;;4997384;28;20223;-82
2022/02/24 02:35:57;;;;;;;1.37;1.07;;;6.90;99.90;;;;;;4994236;28;20213;-81
2022/02/24 02:38:22;;;;;;;3.07;0.90;;;6.90;99.90;;;;;;4978266;28;20222;-79
2022/02/24 02:40:49;;;;;;;2.30;0.87;;;6.90;99.90;;;;;;4984185;28;20329;-80
2022/02/24 02:43:14;;;;;;;2.03;1.60;;;6.90;99.90;;;;;;5019667;28;20222;-80
2022/02/24 02:45:40;;;;;;;2.70;0.80;;;6.90;99.90;;;;;;5016135;28;20241;-79
2022/02/24 02:48:06;;;;;;;9.83;1.23;;;6.90;99.90;;;;;;4994848;28;20666;-80
2022/02/24 02:50:33;;;;;;;0.80;0.57;;;6.90;99.90;;;;;;4980211;28;20582;-80
2022/02/24 02:53:06;;;;;;;0.73;0.73;;;6.80;99.90;;;;;;4995020;28;20223;-80
2022/02/24 02:55:32;;;;;;;11.67;0.93;;;6.80;99.90;;;;;;5008774;28;20227;-80
2022/02/24 02:57:58;;;;;;;4.37;0.77;;;6.80;99.90;;;;;;5010376;28;20628;-79
2022/02/24 03:00:23;;;;;;;0.73;0.73;;;6.70;99.90;;;;;;5008167;28;20235;-80
2022/02/24 03:02:49;;;;;;;0.87;0.87;;;6.70;99.90;;;;;;5011981;28;20266;-80
2022/02/24 03:05:15;;;;;;;7.73;0.43;;;6.60;99.90;;;;;;4975883;28;20759;-80
2022/02/24 03:07:41;;;;;;;7.47;1.17;;;6.60;99.90;;;;;;4974243;28;20214;-80
2022/02/24 03:10:08;;;;;;;2.97;1.53;;;6.60;99.90;;;;;;4980727;28;20226;-80
2022/02/24 03:12:35;;;;;;;0.90;0.90;;;6.60;99.90;;;;;;5001665;28;20215;-79
2022/02/24 03:15:13;;;;;;;4.43;2.30;;;6.60;99.90;;;;;;5009173;28;20196;-79
2022/02/24 03:17:40;;;;;;;1.33;0.70;;;6.60;99.90;;;;;;5008599;28;20238;-80
2022/02/24 03:20:06;;;;;;;2.73;1.83;;;6.70;99.90;;;;;;4987283;28;20253;-80
2022/02/24 03:22:32;;;;;;;1.13;1.13;;;6.70;99.90;;;;;;5003849;28;20254;-79
2022/02/24 03:24:57;;;;;;;1.27;1.27;;;6.80;99.90;;;;;;4977510;28;21165;-80
2022/02/24 03:27:23;;;;;;;0.70;0.50;;;6.80;99.90;;;;;;4983828;28;20245;-79
2022/02/24 03:29:49;;;;;;;19.93;1.60;;;6.70;99.90;;;;;;5000319;28;20202;-79
2022/02/24 03:32:15;;;;;;;1.30;0.67;;;6.70;99.90;;;;;;4991543;28;20261;-80
2022/02/24 03:34:40;;;;;;;0.60;0.60;;;6.70;99.90;;;;;;5022862;28;20309;-79
2022/02/24 03:37:07;;;;;;;4.30;0.73;;;6.70;99.90;;;;;;4992324;28;20219;-79
2022/02/24 03:39:33;;;;;;;3.73;1.33;;;6.70;99.90;;;;;;5002782;28;20254;-82
2022/02/24 03:41:59;;;;;;;1.53;1.20;;;6.60;99.90;;;;;;5009355;28;20227;-80
2022/02/24 03:44:25;;;;;;;1.27;0.67;;;6.60;99.90;;;;;;4987095;28;20284;-80
2022/02/24 03:46:51;;;;;;;1.73;1.13;;;6.60;99.90;;;;;;4992926;28;20223;-80
2022/02/24 03:49:16;;;;;;;0.60;0.60;;;6.60;99.90;;;;;;5009315;28;20210;-80
2022/02/24 03:51:43;;;;;;;8.90;1.97;;;6.60;99.90;;;;;;5016673;28;20229;-80
2022/02/24 03:54:09;;;;;;;0.53;0.30;;;6.60;99.90;;;;;;5029166;28;20178;-80
2022/02/24 03:56:35;;;;;;;4.07;1.27;;;6.70;99.90;;;;;;5010219;28;20187;-80
2022/02/24 03:59:01;;;;;;;2.60;1.00;;;6.70;99.90;;;;;;4991140;28;20211;-80
2022/02/24 04:01:27;;;;;;;0.83;0.63;;;6.80;99.90;;;;;;5009558;28;20235;-80
2022/02/24 04:03:53;;;;;;;3.27;1.03;;;6.90;99.90;;;;;;4993029;28;20696;-80
2022/02/24 04:06:18;;;;;;;1.00;1.00;;;7.00;99.90;;;;;;4976525;28;20219;-81
2022/02/24 04:08:44;;;;;;;2.07;1.90;;;7.10;99.90;;;;;;5033149;28;20194;-81
2022/02/24 04:11:10;;;;;;;5.70;1.27;;;7.10;99.90;;;;;;4996315;28;20282;-79
2022/02/24 04:13:36;;;;;;;5.80;0.70;;;7.20;99.90;;;;;;5000044;28;20227;-80
2022/02/24 04:16:02;;;;;;;0.83;0.63;;;7.20;99.90;;;;;;5005437;28;20273;-82
2022/02/24 04:18:27;;;;;;;0.60;0.53;;;7.20;99.90;;;;;;5013046;28;21018;-81
2022/02/24 04:20:53;;;;;;;1.40;1.30;;;7.30;99.90;;;;;;5021206;28;21029;-81
2022/02/24 04:23:19;;;;;;;1.23;0.90;;;7.30;99.90;;;;;;5012887;28;20233;-81
2022/02/24 04:25:45;;;;;;;2.17;1.93;;;7.30;99.90;;;;;;5000948;28;20559;-79
2022/02/24 04:28:11;;;;;;;3.07;0.90;;;7.30;99.90;;;;;;5011557;28;20719;-79
2022/02/24 04:30:37;;;;;;;1.73;1.63;;;7.40;99.90;;;;;;5013684;28;20230;-79
2022/02/24 04:33:03;;;;;;;0.63;0.63;;;7.40;99.90;;;;;;5020763;28;20195;-81
2022/02/24 04:35:28;;;;;;;2.00;1.30;;;7.50;99.90;;;;;;5029646;28;20222;-81
2022/02/24 04:37:54;;;;;;;7.63;0.97;;;7.40;99.90;;;;;;5012367;28;20225;-80
2022/02/24 04:40:20;;;;;;;13.60;1.20;;;7.50;99.90;;;;;;5044379;28;20226;-80
2022/02/24 04:42:46;;;;;;;0.63;0.63;;;7.50;99.90;;;;;;5009370;28;20246;-81
2022/02/24 04:45:12;;;;;;;0.93;0.90;;;7.60;99.90;;;;;;5003942;28;20301;-81
2022/02/24 04:47:38;;;;;;;15.87;2.07;;;7.60;99.90;;;;;;5028690;28;20666;-78
2022/02/24 04:50:05;;;;;;;1.00;0.90;;;7.70;99.90;;;;;;5002728;28;20755;-80
2022/02/24 04:52:32;;;;;;;8.03;1.23;;;7.70;99.90;;;;;;5028026;28;20229;-80
2022/02/24 04:54:58;;;;;;;4.90;1.40;;;7.70;99.90;;;;;;5013836;28;20234;-80
2022/02/24 04:57:24;;;;;;;3.63;0.83;;;7.70;99.90;;;;;;5018335;28;20214;-80
2022/02/24 04:59:50;;;;;;;0.63;0.63;;;7.70;99.90;;;;;;5004842;28;20244;-82
2022/02/24 05:02:15;;;;;;;0.70;0.70;;;7.70;99.90;;;;;;5029130;28;20225;-81
2022/02/24 05:04:41;;;;;;;6.87;0.53;;;7.70;99.90;;;;;;5027271;28;20324;-81
2022/02/24 05:07:07;;;;;;;3.80;2.20;;;7.70;99.90;;;;;;5009729;28;20214;-78
2022/02/24 05:09:32;;;;;;;1.13;0.87;;;7.70;99.90;;;;;;5023271;28;20221;-81
2022/02/24 05:11:59;;;;;;;2.37;0.70;;;7.70;99.90;;;;;;5027020;28;20198;-82
2022/02/24 05:14:24;;;;;;;3.63;1.73;;;7.70;99.90;;;;;;5009968;28;20242;-82
2022/02/24 05:16:50;;;;;;;1.17;0.77;;;7.70;99.90;;;;;;5027654;28;20377;-82
2022/02/24 05:19:16;;;;;;;0.63;0.63;;;7.80;99.90;;;;;;4996669;28;20754;-82
2022/02/24 05:21:41;;;;;;;6.03;2.03;;;7.80;99.90;;;;;;5012192;28;20226;-82
2022/02/24 05:24:08;;;;;;;1.47;1.07;;;7.80;99.90;;;;;;4994771;28;20202;-80
2022/02/24 05:26:34;;;;;;;3.50;3.20;;;7.80;99.90;;;;;;5032659;28;20194;-79
2022/02/24 05:28:59;;;;;;;3.93;0.60;;;7.80;99.90;;;;;;5012691;28;20750;-81
2022/02/24 05:31:25;;;;;;;2.87;1.27;;;7.70;99.90;;;;;;5020549;28;20615;-79
2022/02/24 05:33:51;;;;;;;1.60;0.87;;;7.80;99.90;;;;;;5017203;28;20877;-81
2022/02/24 05:36:16;;;;;;;0.53;0.53;;;7.80;99.90;;;;;;5010190;28;20278;-81
2022/02/24 05:38:42;;;;;;;0.90;0.80;;;7.80;99.90;;;;;;5011971;28;20195;-82
2022/02/24 05:41:08;;;;;;;1.80;1.70;;;7.80;99.90;;;;;;5028509;28;20265;-82
2022/02/24 05:43:34;;;;;;;1.20;1.17;;;7.80;99.90;;;;;;4990699;28;20700;-82
2022/02/24 05:45:59;;;;;;;0.40;0.40;;;7.80;99.90;;;;;;5012850;28;20215;-81
2022/02/24 05:48:25;;;;;;;0.60;0.60;;;7.80;99.90;;;;;;4977829;28;20675;-80
2022/02/24 05:50:51;;;;;;;5.37;1.50;;;7.80;99.90;;;;;;5013702;28;20728;-82
2022/02/24 05:53:17;;;;;;;5.90;1.37;;;7.80;99.90;;;;;;5019939;28;20280;-81
2022/02/24 05:55:43;;;;;;;3.47;1.40;;;7.80;99.90;;;;;;4999174;28;20219;-81
2022/02/24 05:58:08;;;;;;;2.10;0.60;;;7.70;99.90;;;;;;4989398;28;20211;-81
2022/02/24 06:00:34;;;;;;;1.13;1.10;;;7.70;99.90;;;;;;5026619;28;20235;-81
2022/02/24 06:03:01;;;;;;;2.97;1.20;;;7.80;99.90;;;;;;5011674;28;20238;-83
2022/02/24 06:05:27;;;;;;;10.90;2.30;;;7.70;99.90;;;;;;5016202;28;20227;-82
2022/02/24 06:07:53;;;;;;;1.77;1.67;;;7.70;99.90;;;;;;5023161;28;20214;-82
2022/02/24 06:10:19;;;;;;;2.83;1.50;;;7.80;99.90;;;;;;5018698;28;20227;-82
2022/02/24 06:12:45;;;;;;;2.43;2.23;;;7.70;99.90;;;;;;5011793;28;20234;-83
2022/02/24 06:15:11;;;;;;;0.87;0.87;;;7.70;99.90;;;;;;5001738;28;20294;-80
2022/02/24 06:17:37;;;;;;;1.97;0.90;;;7.70;99.90;;;;;;5013223;28;20526;-81
2022/02/24 06:20:04;;;;;;;1.13;0.90;;;7.70;99.90;;;;;;5012810;28;20595;-80
2022/02/24 06:22:30;;;;;;;0.73;0.47;;;7.70;99.90;;;;;;5014134;28;20322;-80
2022/02/24 06:24:56;;;;;;;4.33;0.63;;;7.70;99.90;;;;;;5015194;28;20584;-82
2022/02/24 06:27:22;;;;;;;6.37;1.30;;;7.70;99.90;;;;;;5018547;28;20199;-80
2022/02/24 06:29:48;;;;;;;1.30;1.03;;;7.70;99.90;;;;;;5034434;28;20205;-82
2022/02/24 06:32:13;;;;;;;2.63;2.43;;;7.70;99.90;;;;;;5036380;28;20249;-83
2022/02/24 06:34:40;;;;;;;9.83;3.10;;;7.70;99.90;;;;;;5003190;28;20342;-85
2022/02/24 06:37:07;;;;;;;4.80;1.57;;;7.70;99.90;;;;;;5037655;28;20213;-84
2022/02/24 06:39:33;;;;;;;2.93;1.77;;;7.70;99.90;;;;;;5036306;28;20218;-83
2022/02/24 06:41:59;;;;;;;3.27;1.67;;;7.60;99.90;;;;;;5018880;28;20229;-81
2022/02/24 06:44:25;;;;;;;5.57;2.70;;;7.60;99.90;;;;;;5032045;28;20225;-81
2022/02/24 06:46:50;;;;;;;6.87;5.50;;;7.60;99.90;;;;;;5035997;28;20938;-81
2022/02/24 06:49:16;;;;;;;4.97;1.97;;;7.50;99.90;;;;;;5034108;28;20608;-84
2022/02/24 06:51:42;;;;;;;11.87;1.77;;;7.50;99.90;;;;;;5027754;28;20219;-82
2022/02/24 06:54:08;;;;;;;1.33;0.93;;;7.40;99.90;;;;;;5013369;28;20201;-82
2022/02/24 06:56:33;;;;;;;1.17;1.10;;;7.50;99.90;;;;;;5010723;28;20195;-82
2022/02/24 06:58:59;;;;;;;3.13;2.27;;;7.50;99.90;;;;;;5003547;28;20223;-83
2022/02/24 07:01:25;;;;;;;7.57;3.17;;;7.50;99.90;;;;;;4987288;28;20254;-83
2022/02/24 07:03:51;;;;;;;2.20;1.30;;;7.50;99.90;;;;;;5006885;28;20219;-82
2022/02/24 07:06:17;;;;;;;3.17;1.27;;;7.50;99.90;;;;;;5013636;28;20556;-81
2022/02/24 07:08:43;;;;;;;1.87;1.47;;;7.50;99.90;;;;;;5012832;28;20256;-81
2022/02/24 07:11:09;;;;;;;2.47;1.20;;;7.50;99.90;;;;;;5002378;28;20222;-84
2022/02/24 07:13:34;;;;;;;0.80;0.80;;;7.50;99.90;;;;;;5018384;28;20937;-82
2022/02/24 07:16:00;;;;;;;2.70;1.80;;;7.40;99.90;;;;;;5018851;28;20592;-82
2022/02/24 07:18:26;;;;;;;2.83;1.77;;;7.50;99.90;;;;;;4970854;28;20246;-85
2022/02/24 07:20:52;;;;;;;0.90;0.90;;;7.50;99.90;;;;;;5013223;28;20218;-84
2022/02/24 07:23:20;;;;;;;2.50;1.00;;;7.50;99.90;;;;;;4964987;28;20296;-86
2022/02/24 07:25:45;;;;;;;0.53;0.53;;;7.50;99.90;;;;;;4993246;28;20230;-85
2022/02/24 07:28:11;;;;;;;1.50;1.20;;;7.40;99.90;;;;;;5015648;28;20588;-85
2022/02/24 07:30:38;;;;;;;4.93;1.27;;;7.50;99.90;;;;;;4998920;28;20230;-84
2022/02/24 07:33:06;;;;;;;5.53;1.70;;;7.50;99.90;;;;;;5016759;28;20219;-88
2022/02/24 07:35:32;;;;;;;3.03;1.20;;;7.60;99.90;;;;;;5014210;28;20221;-83
2022/02/24 07:37:58;;;;;;;1.43;1.33;;;7.60;99.90;;;;;;5010668;28;20221;-84
2022/02/24 07:40:24;;;;;;;4.43;1.77;;;7.60;99.90;;;;;;5010671;28;20231;-84
2022/02/24 07:42:50;;;;;;;2.87;1.40;;;7.60;99.90;;;;;;5008101;28;20215;-83
2022/02/24 07:45:17;;;;;;;6.30;1.10;;;7.60;99.90;;;;;;5031957;28;20249;-85
2022/02/24 07:47:42;;;;;;;1.10;1.00;;;7.70;99.90;;;;;;5030439;28;20194;-84
2022/02/24 07:50:13;;;;;;;2.67;1.60;;;7.60;99.90;;;;;;5033717;28;20230;-82
2022/02/24 07:52:41;;;;;;;2.00;1.83;;;7.70;99.90;;;;;;5029473;28;20271;-85
2022/02/24 07:55:07;;;;;;;4.70;1.57;;;7.80;99.90;;;;;;5021704;28;20221;-84
2022/02/24 07:57:34;;;;;;;0.67;0.67;;;7.80;99.90;;;;;;5035235;28;20305;-83
2022/02/24 07:59:59;;;;;;;4.47;1.43;;;7.90;99.90;;;;;;5032291;28;20230;-83
2022/02/24 08:02:25;;;;;;;2.17;1.57;;;7.90;99.90;;;;;;4992184;28;20222;-85
2022/02/24 08:04:50;;;;;;;2.30;1.73;;;8.00;99.90;;;;;;5036570;28;20214;-85
2022/02/24 08:07:16;;;;;;;2.63;1.40;;;8.00;99.90;;;;;;5002783;28;20214;-86
2022/02/24 08:09:42;;;;;;;4.30;1.60;;;8.10;99.90;;;;;;5016608;28;20214;-84
2022/02/24 08:14:53;;;;;;;1.83;1.17;;;7.90;99.90;;;;;;5033134;28;20198;-84
2022/02/24 08:17:20;;;;;;;1.40;0.93;;;7.80;99.90;;;;;;5035359;28;20606;-84
2022/02/24 08:19:45;;;;;;;3.63;1.23;;;7.80;99.90;;;;;;5032619;28;20243;-83
2022/02/24 08:22:11;;;;;;;0.77;0.77;;;7.90;99.90;;;;;;4992116;28;20589;-83
2022/02/24 08:24:37;;;;;;;4.20;1.37;;;7.90;99.90;;;;;;5026223;28;20247;-84
2022/02/24 08:27:03;;;;;;;2.63;1.50;;;7.90;99.90;;;;;;5031756;28;20281;-82
2022/02/24 08:29:29;;;;;;;2.97;1.03;;;7.90;99.90;;;;;;5015215;28;20199;-84
2022/02/24 08:31:54;;;;;;;1.67;1.57;;;8.00;99.90;;;;;;5025516;28;20303;-84
2022/02/24 08:34:21;;;;;;;13.50;1.63;;;8.00;99.90;;;;;;5031350;28;20206;-83
2022/02/24 08:36:47;;;;;;;1.03;1.00;;;8.10;99.90;;;;;;5032246;28;20226;-83
2022/02/24 08:39:13;;;;;;;1.43;1.33;;;8.20;99.90;;;;;;5030864;28;20190;-84
2022/02/24 08:41:41;;;;;;;1.60;1.23;;;8.20;99.90;;;;;;5005724;28;20303;-84
2022/02/24 08:44:06;;;;;;;0.90;0.87;;;8.20;99.90;;;;;;4990281;28;20669;-85
2022/02/24 08:46:32;;;;;;;1.30;1.20;;;8.10;99.90;;;;;;5016095;28;20702;-83
2022/02/24 08:48:58;;;;;;;7.17;1.70;;;8.20;99.90;;;;;;5033085;28;20265;-83
2022/02/24 08:51:24;;;;;;;2.83;1.67;;;8.10;99.90;;;;;;5015537;28;20241;-83
2022/02/24 08:53:49;;;;;;;4.87;1.80;;;8.10;99.90;;;;;;5033689;28;20232;-82
2022/02/24 08:56:15;;;;;;;11.53;1.83;;;8.30;99.90;;;;;;5032513;28;20226;-84
2022/02/24 08:58:41;;;;;;;1.77;1.10;;;8.40;99.90;;;;;;5021534;28;20215;-83
2022/02/24 09:01:07;;;;;;;1.60;1.50;;;8.50;99.90;;;;;;5014878;28;20718;-83
2022/02/24 09:03:32;;;;;;;4.83;0.97;;;8.40;99.90;;;;;;5013526;28;20257;-83
2022/02/24 09:05:58;;;;;;;3.27;1.57;;;8.50;99.90;;;;;;5014542;28;20244;-82
2022/02/24 09:08:24;;;;;;;6.80;0.97;;;8.60;99.90;;;;;;5013923;28;20716;-85
2022/02/24 09:10:49;;;;;;;7.30;2.03;;;8.50;99.90;;;;;;4990045;28;20258;-83
2022/02/24 09:13:15;;;;;;;1.10;0.83;;;8.80;99.90;;;;;;5014807;28;20222;-85
2022/02/24 09:15:41;;;;;;;1.80;1.03;;;9.10;99.90;;;;;;5004763;28;20556;-85
2022/02/24 09:18:09;;;;;;;0.97;0.70;;;9.30;99.90;;;;;;4972709;28;20210;-85
2022/02/24 09:20:35;;;;;;;2.20;0.97;;;9.40;99.90;;;;;;5015976;28;20230;-85
2022/02/24 09:23:01;;;;;;;1.63;1.33;;;9.50;99.90;;;;;;5027919;28;20233;-85
2022/02/24 09:25:27;;;;;;;3.30;1.60;;;9.50;99.90;;;;;;5021287;28;20223;-83
2022/02/24 09:27:53;;;;;;;4.37;1.20;;;9.50;99.90;;;;;;5004946;28;20602;-83
2022/02/24 09:30:19;;;;;;;2.07;1.00;;;9.30;99.90;;;;;;5011965;28;20198;-83
2022/02/24 09:32:45;;;;;;;8.90;1.47;;;9.20;99.90;;;;;;5014025;28;20302;-84
2022/02/24 09:35:13;;;;;;;5.03;1.97;;;9.10;99.90;;;;;;5031927;28;20271;-83
2022/02/24 09:37:39;;;;;;;1.67;1.43;;;9.20;99.90;;;;;;5020818;28;20314;-82
2022/02/24 09:40:07;;;;;;;4.10;1.37;;;9.40;99.90;;;;;;4999603;28;20288;-84
2022/02/24 09:42:37;;;;;;;3.23;1.63;;;9.70;99.90;;;;;;5015451;28;20261;-83
2022/02/24 09:45:04;;;;;;;2.17;1.33;;;9.80;99.90;;;;;;4983298;28;20203;-86
2022/02/24 09:47:30;;;;;;;3.43;1.67;;;9.70;99.90;;;;;;5012151;28;20974;-85
2022/02/24 09:49:58;;;;;;;1.37;1.23;;;9.70;99.90;;;;;;4990583;28;20215;-84
2022/02/24 09:52:25;;;;;;;6.40;1.50;;;9.70;99.90;;;;;;5018402;28;20207;-86
2022/02/24 09:54:51;;;;;;;2.47;1.30;;;9.70;99.90;;;;;;5018202;28;20214;-85
2022/02/24 09:57:16;;;;;;;5.07;1.30;;;9.80;99.90;;;;;;5008266;28;20206;-85
2022/02/24 09:59:42;;;;;;;4.00;0.93;;;9.90;99.90;;;;;;5034518;28;20218;-86
2022/02/24 10:02:10;;;;;;;0.90;0.77;;;9.90;99.90;;;;;;5009605;28;20305;-85
2022/02/24 10:04:36;;;;;;;4.73;1.50;;;9.90;99.90;;;;;;5001605;28;20342;-86
2022/02/24 10:07:02;;;;;;;4.30;3.07;;;10.00;99.90;;;;;;5002041;28;20223;-86
2022/02/24 10:09:33;;;;;;;0.87;0.83;;;10.00;99.90;;;;;;4992143;28;20215;-85
2022/02/24 10:12:10;;;;;;;4.77;2.87;;;10.10;99.90;;;;;;5016551;28;20193;-84
2022/02/24 10:14:37;;;;;;;4.00;1.63;;;10.00;99.90;;;;;;5000461;28;20238;-85
2022/02/24 10:17:07;;;;;;;3.07;2.13;;;10.00;99.90;;;;;;5033083;28;20276;-85
2022/02/24 10:19:44;;;;;;;4.37;1.07;;;10.00;99.90;;;;;;5035127;28;20276;-86
2022/02/24 10:22:25;;;;;;;2.80;1.97;;;10.00;99.90;;;;;;5027124;28;20222;-86
2022/02/24 10:24:54;;;;;;;3.60;1.23;;;10.20;99.90;;;;;;5016709;28;20302;-87
2022/02/24 10:27:24;;;;;;;3.37;1.57;;;10.40;99.90;;;;;;5014629;28;20191;-87
2022/02/24 10:30:09;;;;;;;3.70;1.80;;;10.50;99.90;;;;;;5016883;28;20214;-87
2022/02/24 10:32:43;;;;;;;3.93;1.73;;;10.80;99.90;;;;;;5016547;28;20251;-85
2022/02/24 10:35:19;;;;;;;2.80;2.60;;;10.90;99.90;;;;;;5018541;28;20215;-89
2022/02/24 10:37:58;;;;;;;1.90;1.47;;;10.60;99.90;;;;;;5029876;28;20229;-85
2022/02/24 10:40:27;;;;;;;10.17;3.27;;;10.30;99.90;;;;;;5052611;28;20221;-87
2022/02/24 10:42:53;;;;;;;3.37;1.13;;;10.20;99.90;;;;;;4999874;28;20219;-86
2022/02/24 10:45:24;;;;;;;6.23;2.17;;;10.40;99.90;;;;;;4985197;28;21062;-89
2022/02/24 10:47:57;;;;;;;4.80;1.70;;;10.40;99.90;;;;;;4983518;28;20740;-87
2022/02/24 10:50:49;;;;;;;2.90;1.53;;;10.40;99.90;;;;;;4999992;28;20230;-84
2022/02/24 10:53:19;;;;;;;4.63;2.07;;;10.30;99.90;;;;;;5018515;28;20264;-87
2022/02/24 10:55:56;;;;;;;0.97;0.97;;;10.20;99.90;;;;;;5015705;28;20230;-87
2022/02/24 10:58:22;;;;;;;2.00;1.60;;;10.10;99.90;;;;;;4999648;28;20671;-86
2022/02/24 11:01:00;;;;;;;2.13;1.13;;;10.10;99.90;;;;;;4971745;28;20231;-86
2022/02/24 11:03:29;;;;;;;1.90;1.70;;;10.10;99.90;;;;;;4994514;28;20739;-86
2022/02/24 11:05:56;;;;;;;1.70;0.97;;;10.10;99.90;;;;;;4997161;28;20264;-86
2022/02/24 11:08:22;;;;;;;1.73;1.40;;;10.10;99.90;;;;;;4996940;28;20219;-87
2022/02/24 11:10:51;;;;;;;3.40;1.00;;;10.40;99.90;;;;;;4998438;28;20230;-87
2022/02/24 11:13:20;;;;;;;0.77;0.77;;;10.20;99.90;;;;;;4996151;28;20273;-86
2022/02/24 11:15:47;;;;;;;1.53;0.97;;;9.90;99.90;;;;;;4984087;28;20211;-87
2022/02/24 11:18:14;;;;;;;3.93;0.60;;;9.80;99.90;;;;;;4998361;28;20199;-87
2022/02/24 11:20:40;;;;;;;4.03;0.97;;;9.60;99.90;;;;;;5000718;28;20215;-85
2022/02/24 11:23:07;;;;;;;1.40;1.30;;;9.40;99.90;;;;;;4980692;28;20219;-84
2022/02/24 11:25:38;;;;;;;0.67;0.67;;;9.30;99.90;;;;;;4999053;28;20234;-85
2022/02/24 11:28:06;;;;;;;2.77;1.30;;;9.10;99.90;;;;;;5009767;28;20219;-86
2022/02/24 11:30:32;;;;;;;5.20;1.37;;;9.00;99.90;;;;;;4993488;28;20238;-87
2022/02/24 11:32:58;;;;;;;0.93;0.70;;;9.00;99.90;;;;;;4979796;28;20199;-86
2022/02/24 11:35:25;;;;;;;5.53;1.43;;;8.90;99.90;;;;;;4957880;28;20223;-85
2022/02/24 11:38:13;;;;;;;2.93;1.43;;;8.90;99.90;;;;;;4976693;28;20231;-86
2022/02/24 11:40:40;;;;;;;1.17;1.10;;;8.80;99.90;;;;;;4978930;28;20235;-83
2022/02/24 11:43:05;;;;;;;8.17;0.90;;;8.80;99.90;;;;;;4980082;28;20224;-82
2022/02/24 11:45:48;;;;;;;3.37;0.80;;;8.70;99.90;;;;;;4968767;28;20223;-84
2022/02/24 11:48:18;;;;;;;0.77;0.77;;;8.70;99.90;;;;;;4995303;28;20195;-85
2022/02/24 11:51:02;;;;;;;3.97;0.73;;;8.70;99.90;;;;;;5005057;28;20203;-84
2022/02/24 11:53:28;;;;;;;1.03;0.77;;;8.70;99.90;;;;;;4987745;28;20554;-88
2022/02/24 11:55:56;;;;;;;3.00;0.97;;;8.60;99.90;;;;;;4976984;28;20212;-84
2022/02/24 11:58:38;;;;;;;1.20;1.20;;;8.60;99.90;;;;;;4975833;28;20237;-85
2022/02/24 12:01:07;;;;;;;2.70;1.03;;;8.50;99.90;;;;;;4974045;28;20313;-84
2022/02/24 12:03:44;;;;;;;1.20;1.00;;;8.50;99.90;;;;;;4995784;28;20219;-83
2022/02/24 12:06:17;;;;;;;10.30;1.10;;;8.40;99.90;;;;;;4995319;28;20296;-85
2022/02/24 12:09:01;;;;;;;2.77;0.87;;;8.30;99.90;;;;;;4998074;28;20185;-84
2022/02/24 12:11:29;;;;;;;1.33;1.23;;;8.20;99.90;;;;;;5013587;28;20250;-84
2022/02/24 12:13:55;;;;;;;1.53;1.43;;;8.30;99.90;;;;;;4983103;28;20245;-83
2022/02/24 12:16:24;;;;;;;1.80;1.70;;;8.20;99.90;;;;;;4977900;28;20698;-84
2022/02/24 12:18:53;;;;;;;1.60;1.50;;;8.20;99.90;;;;;;4990589;28;20756;-85
2022/02/24 12:21:29;;;;;;;1.00;0.70;;;8.10;99.90;;;;;;4958904;28;20215;-83
2022/02/24 12:23:59;;;;;;;1.23;1.17;;;8.10;99.90;;;;;;4977989;28;20652;-86
2022/02/24 12:26:46;;;;;;;1.20;1.10;;;8.10;99.90;;;;;;5000056;28;20215;-88
2022/02/24 12:29:39;;;;;;;1.10;1.00;;;8.20;99.90;;;;;;4983930;28;20972;-87
2022/02/24 12:32:06;;;;;;;0.50;0.50;;;8.00;99.90;;;;;;4990743;28;20243;-84
2022/02/24 12:34:35;;;;;;;0.70;0.70;;;7.80;99.90;;;;;;4953164;28;20223;-85
2022/02/24 12:37:10;;;;;;;1.97;1.03;;;7.80;99.90;;;;;;4998071;28;20219;-85
2022/02/24 12:39:37;;;;;;;0.30;0.30;;;7.70;99.90;;;;;;5003877;28;20856;-83
2022/02/24 12:42:05;;;;;;;9.03;1.00;;;7.70;99.90;;;;;;5000839;28;20230;-84
2022/02/24 12:44:31;;;;;;;0.90;0.73;;;7.70;99.90;;;;;;5016068;28;20217;-86
2022/02/24 12:46:58;;;;;;;0.50;0.50;;;7.60;99.90;;;;;;5024605;28;20572;-86
2022/02/24 12:49:25;;;;;;;0.30;0.30;;;7.60;99.90;;;;;;4999812;28;20679;-83
2022/02/24 12:51:58;;;;;;;0.83;0.43;;;7.50;99.90;;;;;;5039605;28;20229;-86
2022/02/24 12:54:26;;;;;;;1.13;0.53;;;7.20;99.90;;;;;;5024856;28;20226;-84
2022/02/24 12:56:52;;;;;;;0.40;0.40;;;7.00;99.90;;;;;;5026381;28;20200;-86
2022/02/24 12:59:19;;;;;;;0.10;0.10;;;6.70;99.90;;;;;;5023115;28;20323;-84